Time;durP1;ratioP1;P1;durP2;ratioP2;P2;SDS_P1;SDS_P2;PMS_P1;PMS_P2;Temp;Humidity;BMP_temperature;BMP_pressure;BME280_temperature;BME280_humidity;BME280_pressure;Samples;Min_cycle;Max_cycle;Signal;HPM_P1;HPM_P2
2023/09/03 00:00:46;;;;;;;;;;;;;;;22.46;52.38;101627.38;2155429;82;51414;-78
2023/09/03 00:03:48;;;;;;;;;;;;;;;22.45;52.36;101627.86;2151857;82;51404;-78
2023/09/03 00:06:50;;;;;;;;;;;;;;;22.46;52.38;101632.25;2155537;82;52589;-78
2023/09/03 00:09:51;;;;;;;;;;;;;;;22.45;52.36;101627.03;2155547;82;51501;-77
2023/09/03 00:12:53;;;;;;;;;;;;;;;22.45;52.37;101622.47;2155376;82;51503;-77
2023/09/03 00:15:54;;;;;;;;;;;;;;;22.45;52.39;101622.98;2155567;82;50239;-77
2023/09/03 00:18:56;;;;;;;;;;;;;;;22.44;52.37;101622.67;2114276;82;49513;-77
2023/09/03 00:21:57;;;;;;;;;;;;;;;22.44;52.36;101624.85;2156800;81;50200;-77
2023/09/03 00:24:59;;;;;;;;;;;;;;;22.45;52.37;101629.72;2151992;82;50673;-77
2023/09/03 00:28:01;;;;;;;;;;;;;;;22.44;52.38;101624.02;2154074;82;51462;-77
2023/09/03 00:31:11;;;;;;;;;;;;;;;22.45;52.37;101624.33;2135027;82;51452;-77
2023/09/03 00:34:10;;;;;;;;;;;;;;;22.44;52.37;101621.32;2153324;82;22362;-77
2023/09/03 00:37:12;;;;;;;;;;;;;;;22.43;52.36;101628.58;2154179;82;50497;-77
2023/09/03 00:40:14;;;;;;;;;;;;;;;22.44;52.37;101626.72;2154160;82;51473;-77
2023/09/03 00:43:16;;;;;;;;;;;;;;;22.43;52.36;101632.63;2096880;82;51691;-78
2023/09/03 00:46:18;;;;;;;;;;;;;;;22.44;52.37;101632.94;2134967;82;50582;-77
2023/09/03 00:49:22;;;;;;;;;;;;;;;22.43;52.36;101625.02;2153977;81;51432;-77
2023/09/03 00:52:24;;;;;;;;;;;;;;;22.43;52.35;101623.19;2133766;82;50671;-78
2023/09/03 00:55:26;;;;;;;;;;;;;;;22.44;52.36;101619.97;2155328;81;52389;-77
2023/09/03 00:58:27;;;;;;;;;;;;;;;22.43;52.36;101633.11;2151869;82;51623;-77
2023/09/03 01:01:29;;;;;;;;;;;;;;;22.42;52.37;101626.05;2155274;82;50333;-77
2023/09/03 01:04:31;;;;;;;;;;;;;;;22.43;52.37;101631.77;2151649;82;51505;-77
2023/09/03 01:07:33;;;;;;;;;;;;;;;22.42;52.36;101622.02;2155492;81;52593;-77
2023/09/03 01:10:39;;;;;;;;;;;;;;;22.41;52.38;101629.27;2151852;82;50715;-77
2023/09/03 01:13:42;;;;;;;;;;;;;;;22.42;52.38;101630.09;2151861;82;50700;-77
2023/09/03 01:16:45;;;;;;;;;;;;;;;22.42;52.35;101622.84;2151954;82;51592;-77
2023/09/03 01:19:58;;;;;;;;;;;;;;;22.42;52.37;101619.31;2132551;82;51669;-76
2023/09/03 01:23:04;;;;;;;;;;;;;;;22.42;52.36;101624.19;2128225;82;51485;-77
2023/09/03 01:26:10;;;;;;;;;;;;;;;22.41;52.38;101628.44;2148615;80;50499;-77
2023/09/03 01:29:12;;;;;;;;;;;;;;;22.41;52.36;101631.97;2153430;82;50176;-77
2023/09/03 01:32:14;;;;;;;;;;;;;;;22.41;52.37;101632.48;2152292;82;50315;-77
2023/09/03 01:35:15;;;;;;;;;;;;;;;22.41;52.38;101627.09;2151751;82;50281;-77
2023/09/03 01:38:17;;;;;;;;;;;;;;;22.41;52.37;101629.79;2152012;82;50408;-78
2023/09/03 01:41:19;;;;;;;;;;;;;;;22.39;52.35;101632.66;2151998;82;50244;-77
2023/09/03 01:44:20;;;;;;;;;;;;;;;22.41;52.37;101631.14;2155085;82;52320;-78
2023/09/03 01:47:29;;;;;;;;;;;;;;;22.39;52.35;101641.58;2155571;82;49855;-78
2023/09/03 01:50:33;;;;;;;;;;;;;;;22.39;52.36;101633.48;2149640;82;50813;-77
2023/09/03 01:53:39;;;;;;;;;;;;;;;22.39;52.37;101634.84;2152545;82;52200;-78
2023/09/03 01:56:42;;;;;;;;;;;;;;;22.39;52.36;101624.05;2133425;82;52474;-78
2023/09/03 01:59:45;;;;;;;;;;;;;;;22.39;52.35;101617.31;2153676;82;51430;-78
2023/09/03 02:02:52;;;;;;;;;;;;;;;22.39;52.34;101622.70;2153552;82;50720;-78
2023/09/03 02:05:50;;;;;;;;;;;;;;;22.40;52.35;101624.88;2153577;81;22354;-77
2023/09/03 02:08:52;;;;;;;;;;;;;;;22.39;52.34;101621.87;2157406;82;52637;-77
2023/09/03 02:11:54;;;;;;;;;;;;;;;22.38;52.34;101616.99;2153778;82;51567;-78
2023/09/03 02:14:55;;;;;;;;;;;;;;;22.38;52.33;101614.30;2176328;81;51462;-77
2023/09/03 02:17:57;;;;;;;;;;;;;;;22.39;52.32;101617.83;2176576;81;50105;-77
2023/09/03 02:20:58;;;;;;;;;;;;;;;22.39;52.33;101624.56;2175116;81;50750;-78
2023/09/03 02:24:00;;;;;;;;;;;;;;;22.39;52.36;101628.09;2167165;80;50582;-78
2023/09/03 02:27:01;;;;;;;;;;;;;;;22.38;52.35;101627.78;2180319;80;50622;-78
2023/09/03 02:30:04;;;;;;;;;;;;;;;22.39;52.34;101623.22;2150385;82;51536;-78
2023/09/03 02:33:06;;;;;;;;;;;;;;;22.37;52.35;101618.00;2113992;82;52605;-77
2023/09/03 02:36:07;;;;;;;;;;;;;;;22.39;52.32;101622.70;2155807;82;50300;-78
2023/09/03 02:39:09;;;;;;;;;;;;;;;22.38;52.33;101620.20;2152989;81;50317;-77
2023/09/03 02:42:10;;;;;;;;;;;;;;;22.38;52.33;101622.91;2158377;81;50818;-77
2023/09/03 02:45:12;;;;;;;;;;;;;;;22.37;52.33;101627.44;2155442;82;50712;-78
2023/09/03 02:48:13;;;;;;;;;;;;;;;22.38;52.31;101626.95;2155555;82;51499;-78
2023/09/03 02:51:15;;;;;;;;;;;;;;;22.37;52.32;101631.48;2152234;81;50734;-78
2023/09/03 02:54:18;;;;;;;;;;;;;;;22.37;52.32;101624.73;2154943;82;50754;-77
2023/09/03 02:57:20;;;;;;;;;;;;;;;22.36;52.32;101613.64;2156008;82;51018;-78
2023/09/03 03:00:23;;;;;;;;;;;;;;;22.37;52.31;101615.30;2152222;82;50371;-78
2023/09/03 03:03:24;;;;;;;;;;;;;;;22.36;52.30;101612.29;2157505;81;51595;-78
2023/09/03 03:06:26;;;;;;;;;;;;;;;22.37;52.30;101613.95;2155563;81;51507;-78
2023/09/03 03:09:27;;;;;;;;;;;;;;;22.37;52.30;101607.20;2155302;82;52327;-78
2023/09/03 03:12:29;;;;;;;;;;;;;;;22.37;52.31;101616.64;2155317;82;50275;-78
2023/09/03 03:15:33;;;;;;;;;;;;;;;22.36;52.31;101617.69;2151956;82;50457;-77
2023/09/03 03:18:35;;;;;;;;;;;;;;;22.36;52.32;101610.94;2152354;82;22458;-78
2023/09/03 03:21:37;;;;;;;;;;;;;;;22.36;52.30;101601.50;2114415;82;52462;-78
2023/09/03 03:24:38;;;;;;;;;;;;;;;22.35;52.33;101609.28;2155438;82;50702;-77
2023/09/03 03:27:40;;;;;;;;;;;;;;;22.36;52.27;101608.24;2155567;82;49933;-77
2023/09/03 03:30:41;;;;;;;;;;;;;;;22.36;52.27;101617.69;2152216;81;50350;-77
2023/09/03 03:33:43;;;;;;;;;;;;;;;22.35;52.31;101624.11;2155225;82;50137;-77
2023/09/03 03:36:45;;;;;;;;;;;;;;;22.34;52.28;101622.41;2155611;82;50667;-77
2023/09/03 03:39:48;;;;;;;;;;;;;;;22.34;52.29;101626.45;2152090;81;50361;-77
2023/09/03 03:42:50;;;;;;;;;;;;;;;22.35;52.29;101632.20;2151254;82;51517;-77
2023/09/03 03:45:52;;;;;;;;;;;;;;;22.35;52.28;101638.08;2133202;82;51643;-77
2023/09/03 03:48:53;;;;;;;;;;;;;;;22.35;52.28;101639.42;2155641;82;50227;-77
2023/09/03 03:51:55;;;;;;;;;;;;;;;22.35;52.29;101647.52;2152007;82;50334;-77
2023/09/03 03:54:56;;;;;;;;;;;;;;;22.34;52.29;101649.38;2155372;82;50627;-77
2023/09/03 03:57:58;;;;;;;;;;;;;;;22.34;52.29;101645.85;2133183;82;52343;-77
2023/09/03 04:01:00;;;;;;;;;;;;;;;22.34;52.29;101640.46;2157724;80;50270;-80
2023/09/03 04:04:01;;;;;;;;;;;;;;;22.33;52.29;101640.98;2151920;81;50674;-77
2023/09/03 04:07:03;;;;;;;;;;;;;;;22.33;52.28;101639.63;2152104;82;51514;-77
2023/09/03 04:10:05;;;;;;;;;;;;;;;22.34;52.28;101648.03;2133381;82;51655;-78
2023/09/03 04:13:07;;;;;;;;;;;;;;;22.33;52.28;101643.67;2155355;81;50743;-77
2023/09/03 04:16:14;;;;;;;;;;;;;;;22.33;52.26;101639.63;2155683;82;51514;-77
2023/09/03 04:19:15;;;;;;;;;;;;;;;22.33;52.26;101645.54;2152065;82;50679;-77
2023/09/03 04:22:17;;;;;;;;;;;;;;;22.32;52.28;101641.98;2155470;82;51012;-79
2023/09/03 04:25:18;;;;;;;;;;;;;;;22.32;52.28;101656.81;2151887;81;50493;-78
2023/09/03 04:28:20;;;;;;;;;;;;;;;22.33;52.27;101666.59;2155699;82;50776;-79
2023/09/03 04:31:22;;;;;;;;;;;;;;;22.32;52.27;101674.34;2152979;81;50694;-78
2023/09/03 04:34:24;;;;;;;;;;;;;;;22.32;52.27;101675.69;2132875;82;51298;-78
2023/09/03 04:37:26;;;;;;;;;;;;;;;22.32;52.27;101672.98;2151974;82;50351;-78
2023/09/03 04:40:27;;;;;;;;;;;;;;;22.32;52.27;101673.50;2151897;82;50256;-78
2023/09/03 04:43:29;;;;;;;;;;;;;;;22.31;52.26;101675.37;2151721;82;50188;-78
2023/09/03 04:46:30;;;;;;;;;;;;;;;22.32;52.24;101671.64;2155360;82;51182;-78
2023/09/03 04:49:33;;;;;;;;;;;;;;;22.32;52.25;101674.34;2151989;82;50343;-78
2023/09/03 04:52:35;;;;;;;;;;;;;;;22.32;52.26;101673.50;2151647;82;51525;-78
2023/09/03 04:55:37;;;;;;;;;;;;;;;22.32;52.23;101672.98;2155460;82;50300;-78
2023/09/03 04:58:38;;;;;;;;;;;;;;;22.32;52.23;101679.73;2155527;82;50043;-78
2023/09/03 05:01:42;;;;;;;;;;;;;;;22.32;52.24;101684.29;2155788;81;51209;-78
2023/09/03 05:04:44;;;;;;;;;;;;;;;22.33;52.24;101702.16;2155246;82;50320;-78
2023/09/03 05:07:47;;;;;;;;;;;;;;;22.31;52.25;101717.16;2155397;82;50740;-78
2023/09/03 05:10:48;;;;;;;;;;;;;;;22.32;52.25;101727.43;2151837;81;52365;-77
2023/09/03 05:13:50;;;;;;;;;;;;;;;22.31;52.25;101723.91;2114005;82;51633;-78
2023/09/03 05:16:51;;;;;;;;;;;;;;;22.32;52.25;101738.22;2155404;82;50296;-77
2023/09/03 05:19:53;;;;;;;;;;;;;;;22.31;52.25;101739.25;2154879;81;50131;-78
2023/09/03 05:22:55;;;;;;;;;;;;;;;22.31;52.21;101749.52;2151675;82;50597;-78
2023/09/03 05:25:56;;;;;;;;;;;;;;;22.32;52.23;101736.35;2155127;82;50934;-78
2023/09/03 05:28:58;;;;;;;;;;;;;;;22.32;52.21;101736.35;2152157;82;51640;-78
2023/09/03 05:31:59;;;;;;;;;;;;;;;22.33;52.20;101731.82;2156960;81;51622;-77
2023/09/03 05:35:01;;;;;;;;;;;;;;;22.34;52.19;101730.27;2153659;81;51420;-78
2023/09/03 05:38:02;;;;;;;;;;;;;;;22.35;52.19;101725.72;2176849;81;49981;-78
2023/09/03 05:41:04;;;;;;;;;;;;;;;22.33;52.26;101729.13;2176664;81;51461;-78
2023/09/03 05:44:12;;;;;;;;;;;;;;;22.34;52.24;101730.79;2176486;81;50587;-78
2023/09/03 05:47:18;;;;;;;;;;;;;;;22.33;52.24;101729.95;2175496;81;50291;-78
2023/09/03 05:50:17;;;;;;;;;;;;;;;22.32;52.25;101730.95;2176137;81;22776;-78
2023/09/03 05:53:18;;;;;;;;;;;;;;;22.33;52.24;101731.30;2176322;81;51561;-78
2023/09/03 05:56:20;;;;;;;;;;;;;;;22.32;52.24;101741.74;2176708;80;51467;-77
2023/09/03 05:59:21;;;;;;;;;;;;;;;22.33;52.22;101754.23;2153493;81;51556;-77
2023/09/03 06:02:23;;;;;;;;;;;;;;;22.32;52.23;101786.75;2142606;81;51633;-77
2023/09/03 06:05:27;;;;;;;;;;;;;;;22.33;52.24;101813.55;2151945;82;50431;-78
2023/09/03 06:08:29;;;;;;;;;;;;;;;22.33;52.22;101817.59;2151978;82;51519;-77
2023/09/03 06:11:31;;;;;;;;;;;;;;;22.34;52.21;101815.22;2151823;81;51587;-78
2023/09/03 06:14:32;;;;;;;;;;;;;;;22.34;52.23;101807.13;2155291;81;52375;-78
2023/09/03 06:17:34;;;;;;;;;;;;;;;22.35;52.19;101822.30;2155413;81;49918;-78
2023/09/03 06:20:37;;;;;;;;;;;;;;;22.36;52.17;101829.36;2152103;82;50384;-78
2023/09/03 06:23:38;;;;;;;;;;;;;;;22.41;52.10;101830.70;2155353;82;51532;-78
2023/09/03 06:26:40;;;;;;;;;;;;;;;22.52;51.95;101835.66;2133133;82;52342;-78
2023/09/03 06:29:42;;;;;;;;;;;;;;;22.55;51.89;101825.84;2155841;81;51423;-78
2023/09/03 06:32:43;;;;;;;;;;;;;;;22.45;52.29;101823.91;2152476;82;50221;-78
2023/09/03 06:35:45;;;;;;;;;;;;;;;22.45;52.25;101810.42;2155391;82;51533;-77
2023/09/03 06:38:46;;;;;;;;;;;;;;;22.46;52.20;101818.86;2133035;81;51478;-78
2023/09/03 06:41:48;;;;;;;;;;;;;;;22.45;52.19;101818.52;2155615;82;51492;-78
2023/09/03 06:44:50;;;;;;;;;;;;;;;22.46;52.17;101820.20;2151748;82;51311;-77
2023/09/03 06:47:51;;;;;;;;;;;;;;;22.52;52.07;101819.47;2151756;82;50108;-77
2023/09/03 06:50:53;;;;;;;;;;;;;;;22.52;52.26;101822.17;2151830;82;50262;-77
2023/09/03 06:53:54;;;;;;;;;;;;;;;22.50;52.39;101822.34;2151738;82;50218;-77
2023/09/03 06:56:56;;;;;;;;;;;;;;;22.51;52.41;101824.55;2155110;82;50669;-78
2023/09/03 06:59:58;;;;;;;;;;;;;;;22.54;52.29;101830.92;2155944;81;50312;-78
2023/09/03 07:02:59;;;;;;;;;;;;;;;22.56;52.27;101829.73;2156652;81;51666;-77
2023/09/03 07:06:01;;;;;;;;;;;;;;;22.60;52.23;101853.95;2176640;80;51564;-77
2023/09/03 07:09:02;;;;;;;;;;;;;;;22.62;52.25;101868.63;2153856;81;51438;-77
2023/09/03 07:12:04;;;;;;;;;;;;;;;22.68;52.11;101871.11;2176507;81;50665;-77
2023/09/03 07:15:06;;;;;;;;;;;;;;;22.70;52.07;101879.34;2176251;80;50134;-77
2023/09/03 07:18:08;;;;;;;;;;;;;;;22.72;52.00;101880.53;2176599;80;50294;-77
2023/09/03 07:21:09;;;;;;;;;;;;;;;22.72;51.93;101884.06;2176869;81;50151;-77
2023/09/03 07:24:11;;;;;;;;;;;;;;;22.69;52.00;101872.28;2153698;81;50378;-77
2023/09/03 07:27:12;;;;;;;;;;;;;;;22.71;51.96;101882.39;2153316;81;50059;-76
2023/09/03 07:30:14;;;;;;;;;;;;;;;22.68;52.07;101883.25;2166439;81;51513;-77
2023/09/03 07:33:16;;;;;;;;;;;;;;;22.66;51.95;101887.98;2159014;80;50666;-78
2023/09/03 07:36:17;;;;;;;;;;;;;;;22.64;51.95;101892.22;2155376;82;50706;-77
2023/09/03 07:39:19;;;;;;;;;;;;;;;22.62;51.94;101898.30;2151755;82;52157;-77
2023/09/03 07:42:20;;;;;;;;;;;;;;;22.63;51.94;101886.48;2155234;82;51519;-77
2023/09/03 07:45:22;;;;;;;;;;;;;;;22.61;51.99;101883.14;2155189;81;51469;-76
2023/09/03 07:48:24;;;;;;;;;;;;;;;22.59;52.02;101886.53;2155097;82;50447;-77
2023/09/03 07:51:25;;;;;;;;;;;;;;;22.61;52.07;101886.67;2154898;81;49669;-77
2023/09/03 07:54:27;;;;;;;;;;;;;;;22.61;52.08;101893.42;2151395;82;51504;-77
2023/09/03 07:57:30;;;;;;;;;;;;;;;22.63;52.01;101892.39;2151751;82;50330;-77
2023/09/03 08:00:31;;;;;;;;;;;;;;;22.62;52.00;101903.70;2152274;82;50624;-77
2023/09/03 08:03:33;;;;;;;;;;;;;;;22.62;51.98;101899.65;2155082;82;49200;-76
2023/09/03 08:06:35;;;;;;;;;;;;;;;22.62;52.03;101909.09;2155242;82;50277;-76
2023/09/03 08:09:37;;;;;;;;;;;;;;;22.63;51.96;101921.55;2155238;82;50453;-77
2023/09/03 08:12:38;;;;;;;;;;;;;;;22.61;51.99;101924.45;2151444;82;50270;-79
2023/09/03 08:15:40;;;;;;;;;;;;;;;22.61;52.01;101931.70;2155080;81;51148;-76
2023/09/03 08:18:41;;;;;;;;;;;;;;;22.60;52.02;101932.70;2151609;82;51482;-77
2023/09/03 08:21:44;;;;;;;;;;;;;;;22.60;52.01;101932.19;2151566;82;50084;-79
2023/09/03 08:24:46;;;;;;;;;;;;;;;22.62;51.96;101942.81;2154516;81;51653;-77
2023/09/03 08:27:48;;;;;;;;;;;;;;;22.62;51.96;101936.07;2155336;81;51659;-77
2023/09/03 08:30:49;;;;;;;;;;;;;;;22.61;51.98;101929.01;2155876;81;50587;-77
2023/09/03 08:33:53;;;;;;;;;;;;;;;22.64;51.96;101930.51;2151713;81;51536;-77
2023/09/03 08:36:54;;;;;;;;;;;;;;;22.65;51.95;101934.36;2155414;81;22449;-78
2023/09/03 08:39:56;;;;;;;;;;;;;;;22.66;51.94;101936.05;2114529;82;51032;-77
2023/09/03 08:42:58;;;;;;;;;;;;;;;22.64;51.96;101930.51;2155260;82;50348;-77
2023/09/03 08:46:04;;;;;;;;;;;;;;;22.63;52.01;101925.59;2151773;81;51568;-78
2023/09/03 08:49:06;;;;;;;;;;;;;;;22.60;52.04;101926.80;2151782;82;50779;-78
2023/09/03 08:52:07;;;;;;;;;;;;;;;22.62;52.00;101932.02;2148375;81;52512;-79
2023/09/03 08:55:12;;;;;;;;;;;;;;;22.62;52.01;101934.72;2153123;82;51472;-77
2023/09/03 08:58:15;;;;;;;;;;;;;;;22.62;52.00;101927.97;2153884;82;51589;-77
2023/09/03 09:01:17;;;;;;;;;;;;;;;22.64;52.00;101923.25;2176231;81;50173;-77
2023/09/03 09:04:18;;;;;;;;;;;;;;;22.65;51.95;101925.43;2157337;82;51212;-78
2023/09/03 09:07:20;;;;;;;;;;;;;;;22.64;51.94;101905.71;2154003;82;50641;-77
2023/09/03 09:10:22;;;;;;;;;;;;;;;22.65;51.93;101902.50;2153870;81;50749;-78
2023/09/03 09:13:24;;;;;;;;;;;;;;;22.65;51.89;101908.73;2153588;82;50393;-78
2023/09/03 09:16:26;;;;;;;;;;;;;;;22.66;51.89;101913.12;2157432;82;51123;-78
2023/09/03 09:19:27;;;;;;;;;;;;;;;22.65;51.90;101912.77;2176886;80;51517;-77
2023/09/03 09:22:29;;;;;;;;;;;;;;;22.65;51.93;101920.03;2141320;82;51384;-76
2023/09/03 09:25:31;;;;;;;;;;;;;;;22.65;51.89;101920.03;2153652;81;52411;-77
2023/09/03 09:28:32;;;;;;;;;;;;;;;22.64;51.90;101921.90;2154049;81;50384;-77
2023/09/03 09:31:34;;;;;;;;;;;;;;;22.64;51.89;101921.90;2153828;81;50366;-77
2023/09/03 09:34:37;;;;;;;;;;;;;;;22.66;51.84;101929.80;2153993;81;50293;-77
2023/09/03 09:37:39;;;;;;;;;;;;;;;22.65;51.87;101923.56;2154756;81;50311;-77
2023/09/03 09:40:41;;;;;;;;;;;;;;;22.64;51.90;101928.64;2157688;81;52563;-77
2023/09/03 09:43:51;;;;;;;;;;;;;;;22.66;51.81;101929.80;2176656;80;51582;-76
2023/09/03 09:46:49;;;;;;;;;;;;;;;22.64;51.87;101925.95;2154734;81;23039;-78
2023/09/03 09:49:50;;;;;;;;;;;;;;;22.64;51.88;101925.95;2154248;81;50301;-78
2023/09/03 09:52:52;;;;;;;;;;;;;;;22.66;51.86;101927.09;2148835;80;52380;-77
2023/09/03 09:55:58;;;;;;;;;;;;;;;22.65;51.83;101937.05;2157091;82;51727;-78
2023/09/03 09:59:00;;;;;;;;;;;;;;;22.65;51.81;101931.66;2154521;82;51644;-78
2023/09/03 10:02:04;;;;;;;;;;;;;;;22.65;51.80;101927.61;2155457;82;50314;-78
2023/09/03 10:05:07;;;;;;;;;;;;;;;22.65;51.80;101926.78;2138572;82;51301;-77
2023/09/03 10:08:08;;;;;;;;;;;;;;;22.66;51.76;101926.61;2156036;81;50318;-77
2023/09/03 10:11:10;;;;;;;;;;;;;;;22.68;51.72;101922.37;2158604;81;50747;-77
2023/09/03 10:14:12;;;;;;;;;;;;;;;22.66;51.71;101928.45;2156177;82;50116;-78
2023/09/03 10:17:13;;;;;;;;;;;;;;;22.65;51.69;101923.56;2181068;81;49555;-78
2023/09/03 10:20:18;;;;;;;;;;;;;;;22.66;51.71;101923.91;2177235;81;50646;-77
2023/09/03 10:23:20;;;;;;;;;;;;;;;22.66;51.67;101911.77;2113996;81;50692;-79
2023/09/03 10:26:22;;;;;;;;;;;;;;;22.67;51.68;101912.61;2099649;85;50326;-78
2023/09/03 10:29:24;;;;;;;;;;;;;;;22.68;51.63;101914.27;2080312;85;52379;-77
2023/09/03 10:32:25;;;;;;;;;;;;;;;22.69;51.60;101918.16;2101082;83;50688;-77
2023/09/03 10:35:27;;;;;;;;;;;;;;;22.69;51.57;101920.02;2098840;84;51426;-77
2023/09/03 10:38:31;;;;;;;;;;;;;;;22.69;51.61;101929.46;2098843;84;51454;-77
2023/09/03 10:41:33;;;;;;;;;;;;;;;22.68;51.62;101937.20;2079025;85;49687;-78
2023/09/03 10:44:34;;;;;;;;;;;;;;;22.68;51.61;101944.78;2100359;83;50636;-77
2023/09/03 10:47:38;;;;;;;;;;;;;;;22.65;51.63;101937.57;2098495;83;51446;-78
2023/09/03 10:50:48;;;;;;;;;;;;;;;22.63;51.64;101939.09;2098873;83;51558;-77
2023/09/03 10:53:50;;;;;;;;;;;;;;;22.66;51.61;101941.45;2127458;82;49514;-77
2023/09/03 10:57:09;;;;;;;;;;;;;;;22.67;51.54;101930.14;2152248;81;51572;-77
2023/09/03 11:00:11;;;;;;;;;;;;;;;22.65;51.57;101933.01;2151982;82;50832;-77
2023/09/03 11:03:17;;;;;;;;;;;;;;;22.66;51.54;101934.70;2151828;81;51418;-77
2023/09/03 11:06:22;;;;;;;;;;;;;;;22.65;51.58;101935.70;2155527;81;51022;-77
2023/09/03 11:09:23;;;;;;;;;;;;;;;22.65;51.58;101946.50;2155723;82;51477;-78
2023/09/03 11:12:25;;;;;;;;;;;;;;;22.67;51.53;101946.33;2155527;82;50333;-77
2023/09/03 11:15:27;;;;;;;;;;;;;;;22.67;51.54;101946.33;2151984;81;50763;-76
2023/09/03 11:18:30;;;;;;;;;;;;;;;22.66;51.56;101948.20;2133181;82;52342;-78
2023/09/03 11:21:31;;;;;;;;;;;;;;;22.67;51.53;101951.73;2156658;81;22503;-77
2023/09/03 11:24:33;;;;;;;;;;;;;;;22.66;51.57;101963.03;2151731;82;50936;-77
2023/09/03 11:27:35;;;;;;;;;;;;;;;22.67;51.55;101949.86;2151868;81;51419;-77
2023/09/03 11:30:36;;;;;;;;;;;;;;;22.68;51.54;101965.53;2155280;82;51735;-77
2023/09/03 11:33:38;;;;;;;;;;;;;;;22.67;51.48;101959.30;2151667;82;50765;-77
2023/09/03 11:36:39;;;;;;;;;;;;;;;22.67;51.49;101957.95;2152174;82;51395;-78
2023/09/03 11:39:41;;;;;;;;;;;;;;;22.68;51.49;101973.63;2152073;81;51492;-78
2023/09/03 11:42:43;;;;;;;;;;;;;;;22.69;51.40;101973.98;2155398;81;52496;-77
2023/09/03 11:45:45;;;;;;;;;;;;;;;22.67;51.46;101979.54;2152149;81;50508;-78
2023/09/03 11:48:51;;;;;;;;;;;;;;;22.68;51.46;101972.28;2152966;82;51561;-77
2023/09/03 11:51:53;;;;;;;;;;;;;;;22.67;51.43;101974.14;2152214;81;50081;-77
2023/09/03 11:54:55;;;;;;;;;;;;;;;22.66;51.47;101983.27;2155174;81;52414;-78
2023/09/03 11:57:58;;;;;;;;;;;;;;;22.66;51.45;101986.45;2151953;82;50241;-77
2023/09/03 12:00:59;;;;;;;;;;;;;;;22.64;51.48;101986.65;2152344;82;51634;-79
2023/09/03 12:04:01;;;;;;;;;;;;;;;22.66;51.48;101985.10;2151687;81;51310;-78
2023/09/03 12:07:02;;;;;;;;;;;;;;;22.66;51.44;101991.84;2155609;81;52430;-78
2023/09/03 12:10:04;;;;;;;;;;;;;;;22.67;51.45;101991.69;2155388;81;51472;-78
2023/09/03 12:13:06;;;;;;;;;;;;;;;22.67;51.41;101988.16;2151882;82;50624;-78
2023/09/03 12:16:11;;;;;;;;;;;;;;;22.67;51.41;101990.33;2151716;82;51460;-77
2023/09/03 12:19:12;;;;;;;;;;;;;;;22.69;51.39;101996.40;2133062;82;51051;-77
2023/09/03 12:22:14;;;;;;;;;;;;;;;22.69;51.37;101996.91;2176310;81;50424;-78
2023/09/03 12:25:16;;;;;;;;;;;;;;;22.66;51.41;101999.45;2153979;81;51508;-77
2023/09/03 12:28:17;;;;;;;;;;;;;;;22.67;51.35;101992.20;2176762;80;51569;-78
2023/09/03 12:31:20;;;;;;;;;;;;;;;22.68;51.37;101987.13;2157650;82;52674;-78
2023/09/03 12:34:36;;;;;;;;;;;;;;;22.68;51.31;101994.70;2153218;81;49611;-77
2023/09/03 12:37:40;;;;;;;;;;;;;;;22.68;51.30;101994.70;2153742;81;51487;-77
2023/09/03 12:40:42;;;;;;;;;;;;;;;22.68;51.32;101998.75;2153976;82;51484;-78
2023/09/03 12:43:43;;;;;;;;;;;;;;;22.68;51.33;102000.09;2157375;81;49576;-77
2023/09/03 12:46:45;;;;;;;;;;;;;;;22.68;51.36;102006.01;2176838;81;51533;-78
2023/09/03 12:49:47;;;;;;;;;;;;;;;22.69;51.32;102006.36;2152858;82;50299;-80
2023/09/03 12:52:48;;;;;;;;;;;;;;;22.68;51.32;102018.15;2152016;82;50409;-77
2023/09/03 12:55:50;;;;;;;;;;;;;;;22.69;51.32;102012.59;2155736;81;51109;-80
2023/09/03 12:58:52;;;;;;;;;;;;;;;22.67;51.32;102001.12;2156089;82;51513;-79
2023/09/03 13:01:53;;;;;;;;;;;;;;;22.66;51.30;101999.45;2155984;81;51486;-81
2023/09/03 13:04:55;;;;;;;;;;;;;;;22.68;51.32;102000.09;2155733;82;50260;-80
2023/09/03 13:07:56;;;;;;;;;;;;;;;22.67;51.36;101998.95;2155394;82;50946;-79
2023/09/03 13:10:59;;;;;;;;;;;;;;;22.70;51.27;101997.23;2155872;82;51497;-81
2023/09/03 13:14:01;;;;;;;;;;;;;;;22.72;51.42;101989.81;2153104;82;49778;-78
2023/09/03 13:17:03;;;;;;;;;;;;;;;22.70;51.85;102001.28;2146454;81;50323;-78
2023/09/03 13:20:04;;;;;;;;;;;;;;;22.67;51.92;102002.48;2156446;81;49491;-78
2023/09/03 13:23:06;;;;;;;;;;;;;;;22.66;51.98;102002.16;2164823;81;51511;-78
2023/09/03 13:26:08;;;;;;;;;;;;;;;22.65;52.01;101991.02;2133053;82;51233;-77
2023/09/03 13:29:09;;;;;;;;;;;;;;;22.70;52.59;101979.18;2153490;82;50290;-76
2023/09/03 13:32:11;;;;;;;;;;;;;;;22.72;52.53;101979.84;2176498;80;50414;-77
2023/09/03 13:35:13;;;;;;;;;;;;;;;22.75;52.47;101989.45;2176544;81;50476;-76
2023/09/03 13:38:15;;;;;;;;;;;;;;;22.77;52.43;101978.80;2176346;81;50235;-77
2023/09/03 13:41:17;;;;;;;;;;;;;;;22.80;52.50;101987.89;2175967;80;51561;-78
2023/09/03 13:44:18;;;;;;;;;;;;;;;22.83;52.37;101994.27;2152271;82;51538;-77
2023/09/03 13:47:20;;;;;;;;;;;;;;;22.85;52.34;101995.97;2155692;82;51680;-77
2023/09/03 13:50:22;;;;;;;;;;;;;;;22.86;52.27;101995.77;2152274;81;50651;-77
2023/09/03 13:53:23;;;;;;;;;;;;;;;22.88;52.25;101995.09;2152348;82;50361;-78
2023/09/03 13:56:25;;;;;;;;;;;;;;;22.92;52.18;101994.23;2132928;82;51779;-76
2023/09/03 13:59:26;;;;;;;;;;;;;;;22.93;52.07;102011.59;2155294;82;52251;-77
2023/09/03 14:02:28;;;;;;;;;;;;;;;22.95;51.98;102011.42;2152129;81;50732;-77
2023/09/03 14:05:30;;;;;;;;;;;;;;;22.96;51.97;102008.52;2155917;82;50704;-77
2023/09/03 14:08:32;;;;;;;;;;;;;;;22.97;51.96;102006.72;2144029;81;51417;-76
2023/09/03 14:11:33;;;;;;;;;;;;;;;22.98;51.98;102005.69;2152737;82;51640;-75
2023/09/03 14:14:35;;;;;;;;;;;;;;;22.99;52.01;102012.76;2155041;82;50681;-75
2023/09/03 14:17:37;;;;;;;;;;;;;;;22.99;51.81;102017.67;2151688;82;51587;-76
2023/09/03 14:20:38;;;;;;;;;;;;;;;22.98;51.93;102011.92;2155353;81;52679;-76
2023/09/03 14:23:40;;;;;;;;;;;;;;;23.01;51.92;102020.17;2155138;82;51472;-76
2023/09/03 14:26:41;;;;;;;;;;;;;;;23.01;51.87;102017.47;2151750;82;51523;-76
2023/09/03 14:29:43;;;;;;;;;;;;;;;23.02;51.93;102011.07;2165501;80;50259;-76
2023/09/03 14:32:44;;;;;;;;;;;;;;;23.03;51.88;102010.04;2155294;81;50923;-79
2023/09/03 14:35:46;;;;;;;;;;;;;;;23.04;51.86;102007.17;2155305;81;50222;-76
2023/09/03 14:38:48;;;;;;;;;;;;;;;23.03;51.88;102010.04;2151642;81;50407;-77
2023/09/03 14:41:50;;;;;;;;;;;;;;;23.01;51.81;102008.02;2151898;81;50336;-76
2023/09/03 14:44:51;;;;;;;;;;;;;;;23.03;51.91;102001.42;2155028;82;51641;-79
2023/09/03 14:47:53;;;;;;;;;;;;;;;23.05;51.74;101998.56;2155893;82;50231;-77
2023/09/03 14:50:54;;;;;;;;;;;;;;;23.06;51.71;102001.58;2144917;82;52443;-76
2023/09/03 14:53:56;;;;;;;;;;;;;;;23.04;51.62;101996.37;2155785;81;53829;-76
2023/09/03 14:56:58;;;;;;;;;;;;;;;23.05;51.63;101999.91;2132443;82;54229;-78
2023/09/03 14:59:59;;;;;;;;;;;;;;;23.05;51.68;102003.95;2152441;81;50720;-81
2023/09/03 15:03:01;;;;;;;;;;;;;;;23.05;51.67;101993.16;2153885;82;51504;-81
2023/09/03 15:06:03;;;;;;;;;;;;;;;23.04;51.58;101996.86;2177619;81;50698;-82
2023/09/03 15:09:04;;;;;;;;;;;;;;;23.01;51.41;102000.76;2154410;82;51665;-82
2023/09/03 15:12:06;;;;;;;;;;;;;;;23.00;51.43;102011.76;2177417;80;49997;-82
2023/09/03 15:15:08;;;;;;;;;;;;;;;22.98;51.41;102006.52;2154593;81;50377;-81
2023/09/03 15:18:10;;;;;;;;;;;;;;;22.97;51.38;102011.60;2177448;81;51430;-80
2023/09/03 15:21:11;;;;;;;;;;;;;;;22.96;51.40;102007.17;2163843;81;50585;-81
2023/09/03 15:24:14;;;;;;;;;;;;;;;22.95;51.50;102006.02;2154127;81;51572;-80
2023/09/03 15:27:16;;;;;;;;;;;;;;;22.95;51.51;102012.25;2154243;82;51616;-80
2023/09/03 15:30:21;;;;;;;;;;;;;;;22.98;51.49;102012.44;2157126;82;51481;-80
2023/09/03 15:33:21;;;;;;;;;;;;;;;22.98;51.04;102008.39;2159044;81;22673;-79